Etusivu
METAR-TAF:

METAR-TAF

Lentoasemat :

Kuwaitin kansainvälinen lentoasema

Kuwait, Kuwait

Leveyspiiri: 29-13N, Pituuspiiri: 047-59E, korkeus merenpinnasta: 55 m

Tämänhetkinen sää

Tämä raportti tehtiin 19 minuuttia sitten, kello 13.00 UTC
Tuuli 3 kn pohjoisen/luoteesta
Lämpötila 29°C
Kosteus 18%
Ilmanpaine 1015 hPa
Näkyvyys: 7000 m

METAR: OKBK 121300Z 33003KT 7000 NSC 29/02 Q1015 NOSIG

Aika: 16:19 (13:19 UTC)

Sääennuste

Tämä raportti tehtiin 2 tuntia ja 34 minuuttia sitten, kello 10.45 UTC
Ennuste voimassa 12. päivästä klo 12 UTC - 13. päivään klo 18 UTC
Tuuli 3 kn eri suunnista
Näkyvyys: 6000 m

TAF: OKBK 121045Z 1212/1318 VRB03KT 6000 NSC

Säähavainnot ja -ennusteet yli 4000 lentoasemalta (METAR- ja TAF-raportit).

Käytössä olevat sääasemat on merkitty karttaan keltaisilla ja punaisilla pisteillä.

Aseta hiiri pisteen päälle nähdäksesi sääaseman nimen.

Klikkaa sitten nähdäksesi säähavainnot ja -ennusteet.

Kartan vaihtaminen: klikkaa mustalla rastilla varustettuja vihreitä pisteitä, niin voit zoomata sisään; viivalla varustettua vihreää pistettä, niin voit zoomata ulos tai vihreitä nuolia, niin pääset viereisille kartoille.


METAR-TAF: